createdAt,value
2023-03-26T00:01:46.547Z,7.90
2023-03-26T00:04:14.795Z,7.90
2023-03-26T00:06:42.828Z,7.80
2023-03-26T00:09:13.237Z,7.80
2023-03-26T00:11:43.397Z,7.80
2023-03-26T00:14:14.021Z,7.80
2023-03-26T00:16:43.111Z,7.80
2023-03-26T00:19:11.334Z,7.70
2023-03-26T00:21:39.369Z,7.70
2023-03-26T00:24:09.542Z,7.70
2023-03-26T00:26:38.527Z,7.80
2023-03-26T00:29:08.414Z,7.80
2023-03-26T00:31:38.002Z,7.80
2023-03-26T00:34:06.056Z,7.80
2023-03-26T00:36:36.333Z,7.80
2023-03-26T00:39:06.083Z,7.70
2023-03-26T00:41:37.201Z,7.80
2023-03-26T00:44:07.047Z,7.80
2023-03-26T00:46:35.081Z,7.80
2023-03-26T00:49:04.109Z,7.80
2023-03-26T00:51:33.420Z,7.80
2023-03-26T00:54:01.553Z,7.80
2023-03-26T00:56:29.675Z,7.80
2023-03-26T00:58:57.832Z,7.80
2023-03-26T01:01:29.119Z,7.80
2023-03-26T01:04:07.352Z,7.80
2023-03-26T01:06:36.882Z,7.80
2023-03-26T01:09:07.764Z,7.70
2023-03-26T01:11:36.261Z,7.70
2023-03-26T01:14:07.294Z,7.70
2023-03-26T01:16:38.412Z,7.80
2023-03-26T01:19:10.381Z,7.70
2023-03-26T01:21:39.739Z,7.70
2023-03-26T01:24:09.964Z,7.70
2023-03-26T01:26:54.118Z,7.70
2023-03-26T01:29:23.903Z,7.70
2023-03-26T01:31:57.304Z,7.70
2023-03-26T01:34:30.758Z,7.70
2023-03-26T01:37:01.596Z,7.80
2023-03-26T01:39:32.836Z,7.80
2023-03-26T01:42:03.473Z,7.80
2023-03-26T01:44:34.771Z,7.80
2023-03-26T01:47:02.968Z,7.90
2023-03-26T01:49:31.152Z,7.90
2023-03-26T01:51:59.261Z,7.80
2023-03-26T01:54:28.323Z,7.70
2023-03-26T01:57:02.710Z,7.80
2023-03-26T01:59:43.102Z,7.90
2023-03-26T02:02:12.631Z,7.70
2023-03-26T02:04:43.926Z,7.70
2023-03-26T02:07:14.824Z,7.60
2023-03-26T02:09:45.935Z,7.60
2023-03-26T02:12:15.646Z,7.60
2023-03-26T02:14:43.830Z,7.60
2023-03-26T02:17:12.181Z,7.60
2023-03-26T02:19:42.054Z,7.60
2023-03-26T02:22:11.302Z,7.60
2023-03-26T02:24:40.063Z,7.50
2023-03-26T02:27:08.660Z,7.50
2023-03-26T02:29:39.917Z,7.50
2023-03-26T02:32:13.192Z,7.40
2023-03-26T02:34:41.240Z,7.40
2023-03-26T02:37:09.425Z,7.50
2023-03-26T02:39:39.818Z,7.40
2023-03-26T02:42:16.202Z,7.40
2023-03-26T02:44:50.447Z,7.40
2023-03-26T02:47:21.428Z,7.40
2023-03-26T02:49:55.365Z,7.30
2023-03-26T02:52:49.852Z,7.30
2023-03-26T02:55:18.124Z,7.30
2023-03-26T02:57:47.319Z,7.30
2023-03-26T03:00:22.816Z,7.30
2023-03-26T03:02:52.968Z,7.30
2023-03-26T03:05:26.372Z,7.40
2023-03-26T03:08:08.186Z,7.30
2023-03-26T03:10:39.561Z,7.40
2023-03-26T03:13:12.621Z,7.40
2023-03-26T03:15:42.167Z,7.40
2023-03-26T03:18:10.350Z,7.30
2023-03-26T03:20:38.382Z,7.30
2023-03-26T03:23:06.427Z,7.40
2023-03-26T03:25:35.003Z,7.40
2023-03-26T03:28:03.313Z,7.30
2023-03-26T03:30:31.382Z,7.40
2023-03-26T03:33:13.719Z,7.40
2023-03-26T03:35:42.696Z,7.50
2023-03-26T03:38:11.489Z,7.40
2023-03-26T03:40:47.788Z,7.50
2023-03-26T03:43:16.157Z,7.50
2023-03-26T03:45:57.524Z,7.50
2023-03-26T03:48:39.947Z,7.50
2023-03-26T03:51:09.733Z,7.40
2023-03-26T03:53:47.624Z,7.30
2023-03-26T03:56:24.114Z,7.40
2023-03-26T03:59:12.666Z,7.30
2023-03-26T04:01:43.278Z,7.30
2023-03-26T04:04:34.465Z,7.30
2023-03-26T04:07:05.608Z,7.40
2023-03-26T04:09:56.888Z,7.30
2023-03-26T04:12:27.239Z,7.30
2023-03-26T04:15:05.266Z,7.40
2023-03-26T04:17:34.021Z,7.40
2023-03-26T04:20:07.035Z,7.50
2023-03-26T04:22:36.609Z,7.40
2023-03-26T04:25:08.124Z,7.50
2023-03-26T04:27:49.012Z,7.40
2023-03-26T04:30:24.541Z,7.40
2023-03-26T04:33:01.024Z,7.50
2023-03-26T04:35:35.473Z,7.50
2023-03-26T04:38:06.582Z,7.50
2023-03-26T04:40:39.170Z,7.50
2023-03-26T04:43:31.460Z,7.40
2023-03-26T04:46:21.845Z,7.30
2023-03-26T04:48:55.638Z,7.20
2023-03-26T04:51:27.150Z,7.10
2023-03-26T04:53:58.369Z,7.10
2023-03-26T04:56:39.133Z,7.10
2023-03-26T04:59:20.383Z,7.10
2023-03-26T05:01:49.572Z,7.00
2023-03-26T05:04:19.002Z,7.00
2023-03-26T05:06:48.470Z,6.90
2023-03-26T05:09:23.601Z,6.90
2023-03-26T05:12:14.450Z,6.90
2023-03-26T05:14:53.910Z,6.90
2023-03-26T05:17:34.980Z,7.00
2023-03-26T05:20:04.421Z,7.00
2023-03-26T05:22:35.408Z,7.00
2023-03-26T05:25:16.795Z,7.10
2023-03-26T05:27:45.313Z,7.20
2023-03-26T05:30:14.834Z,7.10
2023-03-26T05:32:46.218Z,7.20
2023-03-26T05:35:17.000Z,7.20
2023-03-26T05:37:47.153Z,7.10
2023-03-26T05:40:19.041Z,7.10
2023-03-26T05:42:55.208Z,6.80
2023-03-26T05:45:48.276Z,6.80
2023-03-26T05:48:27.289Z,6.80
2023-03-26T05:50:56.366Z,6.80
2023-03-26T05:53:28.627Z,6.80
2023-03-26T05:56:32.291Z,6.90
2023-03-26T05:59:18.970Z,7.10
2023-03-26T06:02:18.998Z,7.10
2023-03-26T06:05:08.122Z,7.20
2023-03-26T06:07:52.445Z,7.30
2023-03-26T06:10:22.515Z,7.20
2023-03-26T06:12:50.696Z,7.30
2023-03-26T06:15:19.359Z,7.20
2023-03-26T06:18:01.453Z,7.30
2023-03-26T06:20:59.749Z,7.40
2023-03-26T06:23:51.801Z,7.60
2023-03-26T06:26:46.446Z,7.90
2023-03-26T06:29:35.592Z,8.00
2023-03-26T06:32:26.307Z,7.80
2023-03-26T06:35:20.616Z,7.70
2023-03-26T06:37:48.687Z,7.60
2023-03-26T06:40:16.981Z,7.60
2023-03-26T06:43:09.187Z,7.60
2023-03-26T06:45:57.416Z,7.90
2023-03-26T06:48:40.558Z,7.80
2023-03-26T06:51:38.641Z,7.70
2023-03-26T06:54:39.319Z,7.80
2023-03-26T06:57:30.098Z,7.80
2023-03-26T07:00:19.863Z,7.60
2023-03-26T07:03:06.343Z,7.50
2023-03-26T07:05:53.197Z,7.40
2023-03-26T07:08:21.228Z,7.40
2023-03-26T07:11:12.415Z,7.60
2023-03-26T07:14:04.171Z,7.60
2023-03-26T07:16:49.438Z,7.70
2023-03-26T07:19:37.801Z,7.60
2023-03-26T07:22:06.569Z,7.70
2023-03-26T07:24:53.539Z,7.80
2023-03-26T07:27:48.274Z,7.80
2023-03-26T07:30:26.750Z,7.90
2023-03-26T07:33:23.710Z,7.90
2023-03-26T07:36:18.822Z,7.70
2023-03-26T07:39:19.721Z,7.60
2023-03-26T07:42:01.184Z,7.50
2023-03-26T07:44:51.398Z,7.40
2023-03-26T07:47:38.967Z,7.50
2023-03-26T07:50:18.483Z,7.40
2023-03-26T07:52:59.390Z,7.40
2023-03-26T07:55:32.912Z,7.40
2023-03-26T07:58:40.490Z,7.40
2023-03-26T08:01:33.052Z,7.30
2023-03-26T08:04:24.079Z,7.40
2023-03-26T08:07:26.871Z,7.70
2023-03-26T08:10:17.546Z,7.90
2023-03-26T08:13:04.677Z,8.00
2023-03-26T08:15:34.531Z,8.10
2023-03-26T08:18:06.522Z,8.10
2023-03-26T08:20:41.578Z,8.20
2023-03-26T08:23:16.339Z,8.30
2023-03-26T08:25:51.798Z,8.40
2023-03-26T08:28:41.040Z,8.30
2023-03-26T08:31:09.960Z,8.30
2023-03-26T08:33:40.783Z,8.20
2023-03-26T08:36:10.662Z,8.30
2023-03-26T08:38:40.079Z,8.20
2023-03-26T08:41:53.703Z,8.40
2023-03-26T08:44:47.741Z,8.40
2023-03-26T08:47:35.133Z,8.60
2023-03-26T08:50:28.883Z,8.50
2023-03-26T08:53:18.791Z,8.40
2023-03-26T08:55:54.666Z,9.00
2023-03-26T08:58:48.656Z,9.30
2023-03-26T09:02:07.732Z,9.50
2023-03-26T09:04:59.221Z,9.20
2023-03-26T09:07:50.374Z,8.90
2023-03-26T09:10:42.953Z,8.80
2023-03-26T09:13:47.931Z,8.50
2023-03-26T09:16:27.102Z,8.20
2023-03-26T09:19:47.031Z,8.00
2023-03-26T09:22:48.628Z,7.90
2023-03-26T09:25:35.230Z,7.90
2023-03-26T09:28:26.933Z,8.00
2023-03-26T09:31:07.481Z,8.50
2023-03-26T09:33:55.992Z,9.40
2023-03-26T09:36:33.440Z,10.00
2023-03-26T09:39:08.753Z,9.60
2023-03-26T09:41:43.251Z,9.30
2023-03-26T09:44:40.964Z,9.10
2023-03-26T09:47:24.532Z,9.10
2023-03-26T09:49:53.497Z,10.00
2023-03-26T09:52:33.749Z,10.90
2023-03-26T09:55:19.640Z,11.20
2023-03-26T09:58:11.549Z,11.50
2023-03-26T10:00:42.676Z,11.70
2023-03-26T10:03:22.224Z,11.90
2023-03-26T10:05:54.154Z,11.50
2023-03-26T10:08:32.679Z,11.30
2023-03-26T10:11:03.255Z,10.30
2023-03-26T10:13:33.715Z,9.50
2023-03-26T10:16:10.955Z,9.40
2023-03-26T10:18:48.782Z,9.10
2023-03-26T10:21:22.108Z,9.00
2023-03-26T10:23:59.860Z,9.10
2023-03-26T10:26:39.991Z,9.20
2023-03-26T10:29:31.916Z,9.20
2023-03-26T10:32:04.486Z,9.20
2023-03-26T10:34:49.342Z,9.10
2023-03-26T10:37:20.388Z,9.10
2023-03-26T10:39:58.791Z,9.20
2023-03-26T10:42:41.741Z,9.40
2023-03-26T10:45:31.542Z,9.60
2023-03-26T10:48:23.686Z,9.70
2023-03-26T10:51:05.151Z,10.60
2023-03-26T10:53:35.898Z,10.40
2023-03-26T10:56:10.897Z,10.00
2023-03-26T10:58:48.774Z,9.80
2023-03-26T11:01:23.542Z,9.90
2023-03-26T11:03:52.862Z,9.80
2023-03-26T11:06:31.250Z,9.80
2023-03-26T11:09:06.827Z,9.80
2023-03-26T11:11:39.193Z,10.00
2023-03-26T11:14:10.770Z,10.10
2023-03-26T11:16:48.591Z,10.00
2023-03-26T11:19:18.975Z,10.50
2023-03-26T11:21:50.250Z,11.20
2023-03-26T11:24:37.333Z,11.10
2023-03-26T11:27:14.826Z,11.50
2023-03-26T11:29:47.363Z,11.90
2023-03-26T11:32:16.770Z,11.60
2023-03-26T11:34:49.036Z,11.40
2023-03-26T11:37:21.664Z,11.80
2023-03-26T11:39:51.107Z,12.10
2023-03-26T11:42:19.679Z,11.70
2023-03-26T11:44:49.147Z,11.20
2023-03-26T11:47:19.376Z,10.50
2023-03-26T11:49:47.434Z,10.70
2023-03-26T11:52:15.832Z,11.00
2023-03-26T11:54:48.257Z,11.30
2023-03-26T11:57:18.584Z,11.30
2023-03-26T11:59:56.457Z,11.10
2023-03-26T12:02:29.274Z,11.10
2023-03-26T12:05:12.110Z,11.50
2023-03-26T12:07:46.602Z,11.80
2023-03-26T12:10:24.957Z,12.10
2023-03-26T12:12:55.678Z,12.00
2023-03-26T12:15:23.727Z,11.70
2023-03-26T12:17:56.103Z,11.70
2023-03-26T12:20:32.631Z,12.20
2023-03-26T12:23:01.102Z,13.00
2023-03-26T12:25:33.307Z,12.70
2023-03-26T12:28:02.558Z,12.20
2023-03-26T12:30:33.846Z,12.00
2023-03-26T12:33:03.918Z,11.60
2023-03-26T12:35:34.309Z,11.60
2023-03-26T12:38:22.937Z,11.80
2023-03-26T12:41:04.902Z,11.70
2023-03-26T12:44:52.934Z,12.10
2023-03-26T12:47:55.485Z,11.80
2023-03-26T12:49:17.521Z,11.80
2023-03-26T12:51:47.177Z,11.30
2023-03-26T12:54:28.961Z,10.80
2023-03-26T12:57:12.058Z,10.80
2023-03-26T12:59:46.837Z,10.70
2023-03-26T13:02:32.770Z,11.30
2023-03-26T13:05:09.843Z,11.40
2023-03-26T13:07:47.465Z,11.40
2023-03-26T13:10:42.337Z,11.30
2023-03-26T13:13:21.696Z,10.90
2023-03-26T13:15:52.032Z,11.10
2023-03-26T13:18:28.010Z,11.20
2023-03-26T13:20:58.522Z,11.30
2023-03-26T13:23:36.186Z,11.30
2023-03-26T13:26:11.295Z,11.70
2023-03-26T13:28:43.792Z,12.20
2023-03-26T13:31:15.887Z,12.10
2023-03-26T13:33:48.915Z,12.20
2023-03-26T13:36:24.517Z,12.00
2023-03-26T13:39:02.172Z,11.80
2023-03-26T13:41:34.765Z,12.00
2023-03-26T13:44:08.789Z,12.20
2023-03-26T13:46:37.821Z,11.60
2023-03-26T13:49:07.152Z,11.20
2023-03-26T13:51:38.199Z,11.20
2023-03-26T13:54:10.974Z,11.40
2023-03-26T13:56:43.280Z,11.40
2023-03-26T13:59:15.752Z,11.20
2023-03-26T14:01:48.695Z,11.10
2023-03-26T14:04:21.652Z,10.90
2023-03-26T14:06:57.607Z,10.80
2023-03-26T14:09:29.164Z,10.90
2023-03-26T14:12:21.437Z,11.20
2023-03-26T14:14:53.298Z,11.10
2023-03-26T14:17:22.485Z,11.00
2023-03-26T14:20:30.152Z,10.90
2023-03-26T14:23:27.934Z,10.70
2023-03-26T14:26:02.862Z,10.50
2023-03-26T14:29:04.534Z,10.70
2023-03-26T14:31:34.904Z,10.90
2023-03-26T14:34:29.270Z,10.90
2023-03-26T14:37:12.309Z,10.70
2023-03-26T14:39:58.427Z,10.60
2023-03-26T14:42:29.269Z,10.40
2023-03-26T14:45:27.668Z,10.30
2023-03-26T14:48:09.719Z,10.20
2023-03-26T14:50:50.476Z,10.30
2023-03-26T14:53:23.918Z,10.60
2023-03-26T14:56:28.268Z,10.90
2023-03-26T14:59:24.775Z,10.80
2023-03-26T15:02:25.219Z,10.90
2023-03-26T15:05:12.360Z,11.00
2023-03-26T15:08:13.846Z,10.90
2023-03-26T15:11:06.612Z,10.80
2023-03-26T15:13:56.951Z,10.80
2023-03-26T15:17:03.299Z,10.90
2023-03-26T15:20:07.187Z,11.00
2023-03-26T15:23:01.104Z,11.10
2023-03-26T15:25:57.783Z,11.00
2023-03-26T15:29:04.344Z,10.80
2023-03-26T15:31:57.794Z,10.60
2023-03-26T15:34:43.394Z,10.50
2023-03-26T15:37:35.587Z,10.40
2023-03-26T15:40:18.751Z,10.20
2023-03-26T15:42:52.496Z,10.10
2023-03-26T15:45:32.091Z,10.00
2023-03-26T15:48:15.881Z,9.90
2023-03-26T15:50:55.808Z,9.90
2023-03-26T15:53:30.307Z,9.80
2023-03-26T15:56:18.843Z,9.70
2023-03-26T15:58:50.646Z,9.70
2023-03-26T16:01:25.972Z,9.80
2023-03-26T16:03:58.572Z,9.80
2023-03-26T16:06:32.126Z,9.70
2023-03-26T16:09:17.050Z,9.60
2023-03-26T16:11:53.822Z,9.50
2023-03-26T16:14:23.974Z,9.40
2023-03-26T16:16:57.403Z,9.40
2023-03-26T16:19:56.678Z,9.20
2023-03-26T16:22:42.530Z,9.10
2023-03-26T16:25:29.547Z,9.10
2023-03-26T16:28:33.937Z,9.00
2023-03-26T16:31:36.776Z,9.00
2023-03-26T16:34:29.666Z,8.90
2023-03-26T16:36:59.454Z,8.80
2023-03-26T16:39:40.359Z,8.60
2023-03-26T16:42:27.228Z,8.40
2023-03-26T16:45:02.860Z,8.30
2023-03-26T16:47:34.854Z,8.20
2023-03-26T16:50:10.682Z,8.10
2023-03-26T16:52:46.314Z,8.00
2023-03-26T16:55:19.782Z,8.10
2023-03-26T16:57:51.264Z,8.10
2023-03-26T17:00:42.653Z,8.00
2023-03-26T17:03:26.696Z,7.90
2023-03-26T17:06:06.402Z,7.90
2023-03-26T17:08:42.626Z,7.90
2023-03-26T17:11:18.148Z,7.80
2023-03-26T17:13:49.033Z,7.80
2023-03-26T17:16:21.051Z,7.80
2023-03-26T17:18:51.803Z,7.70
2023-03-26T17:21:21.465Z,7.60
2023-03-26T17:23:59.088Z,7.60
2023-03-26T17:26:30.885Z,7.50
2023-03-26T17:29:06.133Z,7.50
2023-03-26T17:31:41.208Z,7.40
2023-03-26T17:34:46.880Z,7.30
2023-03-26T17:37:33.686Z,7.20
2023-03-26T17:40:38.781Z,7.20
2023-03-26T17:43:11.132Z,7.10
2023-03-26T17:45:40.031Z,7.10
2023-03-26T17:48:15.534Z,7.00
2023-03-26T17:50:48.513Z,7.00
2023-03-26T17:53:20.300Z,7.00
2023-03-26T17:55:50.045Z,6.90
2023-03-26T17:58:24.888Z,6.90
2023-03-26T18:00:54.399Z,6.90
2023-03-26T18:03:25.128Z,6.80
2023-03-26T18:05:55.571Z,6.80
2023-03-26T18:08:42.632Z,6.70
2023-03-26T18:11:50.862Z,6.70
2023-03-26T18:14:51.114Z,6.70
2023-03-26T18:17:19.316Z,6.70
2023-03-26T18:19:49.821Z,6.70
2023-03-26T18:22:25.257Z,6.50
2023-03-26T18:24:53.300Z,6.50
2023-03-26T18:27:21.888Z,6.50
2023-03-26T18:30:01.450Z,6.40
2023-03-26T18:32:33.545Z,6.30
2023-03-26T18:35:14.346Z,6.30
2023-03-26T18:37:44.292Z,6.30
2023-03-26T18:40:16.786Z,6.20
2023-03-26T18:42:46.281Z,6.20
2023-03-26T18:45:27.677Z,6.10
2023-03-26T18:47:57.331Z,6.10
2023-03-26T18:50:29.025Z,6.10
2023-03-26T18:52:58.621Z,6.00
2023-03-26T18:55:28.400Z,6.00
2023-03-26T18:57:56.847Z,5.90
2023-03-26T19:00:25.580Z,5.90
2023-03-26T19:03:03.086Z,5.90
2023-03-26T19:05:33.040Z,5.80
2023-03-26T19:08:03.420Z,5.80
2023-03-26T19:10:32.206Z,5.70
2023-03-26T19:13:01.386Z,5.70
2023-03-26T19:15:29.939Z,5.70
2023-03-26T19:18:03.514Z,5.60
2023-03-26T19:20:37.294Z,5.50
2023-03-26T19:23:05.432Z,5.50
2023-03-26T19:25:35.355Z,5.50
2023-03-26T19:28:03.446Z,5.50
2023-03-26T19:30:32.896Z,5.40
2023-03-26T19:33:12.675Z,5.40
2023-03-26T19:35:43.603Z,5.40
2023-03-26T19:38:25.190Z,5.30
2023-03-26T19:40:54.385Z,5.30
2023-03-26T19:43:22.721Z,5.30
2023-03-26T19:45:59.640Z,5.30
2023-03-26T19:48:46.031Z,5.20
2023-03-26T19:51:21.400Z,5.10
2023-03-26T19:53:53.066Z,5.10
2023-03-26T19:56:21.949Z,5.00
2023-03-26T19:58:50.455Z,4.90
2023-03-26T20:01:19.603Z,5.00
2023-03-26T20:03:48.508Z,4.90
2023-03-26T20:06:17.643Z,5.00
2023-03-26T20:08:47.216Z,5.00
2023-03-26T20:11:16.600Z,5.00
2023-03-26T20:13:44.633Z,5.00
2023-03-26T20:16:15.704Z,5.00
2023-03-26T20:18:43.781Z,5.00
2023-03-26T20:21:12.499Z,5.10
2023-03-26T20:23:40.764Z,5.00
2023-03-26T20:26:13.109Z,5.10
2023-03-26T20:28:47.601Z,5.10
2023-03-26T20:31:19.333Z,5.10
2023-03-26T20:33:48.040Z,5.10
2023-03-26T20:36:34.058Z,5.00
2023-03-26T20:39:05.665Z,4.90
2023-03-26T20:41:35.477Z,4.80
2023-03-26T20:44:05.038Z,4.70
2023-03-26T20:46:33.255Z,4.70
2023-03-26T20:49:01.418Z,4.60
2023-03-26T20:51:29.989Z,4.50
2023-03-26T20:53:57.995Z,4.40
2023-03-26T20:56:27.064Z,4.40
2023-03-26T20:59:09.707Z,4.30
2023-03-26T21:01:38.950Z,4.30
2023-03-26T21:04:07.033Z,4.20
2023-03-26T21:06:35.038Z,4.10
2023-03-26T21:09:04.134Z,4.10
2023-03-26T21:11:40.966Z,4.00
2023-03-26T21:14:13.819Z,3.90
2023-03-26T21:16:42.378Z,3.90
2023-03-26T21:19:11.179Z,3.90
2023-03-26T21:21:50.678Z,3.90
2023-03-26T21:24:23.920Z,3.90
2023-03-26T21:26:54.544Z,3.80
2023-03-26T21:29:24.465Z,3.90
2023-03-26T21:31:54.179Z,3.80
2023-03-26T21:34:23.333Z,3.80
2023-03-26T21:36:52.631Z,3.80
2023-03-26T21:39:21.126Z,3.70
2023-03-26T21:42:04.242Z,3.60
2023-03-26T21:44:36.166Z,3.60
2023-03-26T21:47:05.302Z,3.60
2023-03-26T21:49:34.939Z,3.50
2023-03-26T21:52:03.444Z,3.40
2023-03-26T21:54:32.343Z,3.40
2023-03-26T21:57:07.983Z,3.40
2023-03-26T21:59:40.964Z,3.40
2023-03-26T22:02:11.801Z,3.40
2023-03-26T22:04:42.964Z,3.40
2023-03-26T22:07:12.794Z,3.30
2023-03-26T22:09:41.124Z,3.20
2023-03-26T22:12:10.524Z,3.20
2023-03-26T22:14:40.679Z,3.30
2023-03-26T22:17:08.669Z,3.20
2023-03-26T22:19:36.959Z,3.20
2023-03-26T22:22:05.411Z,3.20
2023-03-26T22:24:34.428Z,3.20
2023-03-26T22:27:02.430Z,3.10
2023-03-26T22:29:30.440Z,3.20
2023-03-26T22:31:59.778Z,3.30
2023-03-26T22:34:27.792Z,3.30
2023-03-26T22:36:56.169Z,3.30
2023-03-26T22:39:24.199Z,3.20
2023-03-26T22:41:52.191Z,3.20
2023-03-26T22:44:20.771Z,3.10
2023-03-26T22:46:51.404Z,3.10
2023-03-26T22:49:21.422Z,3.10
2023-03-26T22:51:50.201Z,3.00
2023-03-26T22:54:18.224Z,3.00
2023-03-26T22:56:46.822Z,2.90
2023-03-26T22:59:15.341Z,2.90
2023-03-26T23:01:44.180Z,2.90
2023-03-26T23:04:12.337Z,2.80
2023-03-26T23:07:00.627Z,2.80
2023-03-26T23:09:29.592Z,2.80
2023-03-26T23:11:57.627Z,2.70
2023-03-26T23:14:25.716Z,2.70
2023-03-26T23:16:53.718Z,2.70
2023-03-26T23:19:21.723Z,2.70
2023-03-26T23:21:49.704Z,2.80
2023-03-26T23:24:19.092Z,2.80
2023-03-26T23:26:51.027Z,2.80
2023-03-26T23:29:19.415Z,2.80
2023-03-26T23:31:47.622Z,2.90
2023-03-26T23:34:17.118Z,2.90
2023-03-26T23:36:45.734Z,2.80
2023-03-26T23:39:14.018Z,2.90
2023-03-26T23:41:43.856Z,2.90
2023-03-26T23:44:14.648Z,2.90
2023-03-26T23:46:42.726Z,2.90
2023-03-26T23:49:12.169Z,2.90
2023-03-26T23:51:40.179Z,2.80
2023-03-26T23:54:08.916Z,2.80
2023-03-26T23:56:37.006Z,2.70
2023-03-26T23:59:06.387Z,2.70
